Time;durP1;ratioP1;P1;durP2;ratioP2;P2;SDS_P1;SDS_P2;PMS_P1;PMS_P2;Temp;Humidity;BMP_temperature;BMP_pressure;BME280_temperature;BME280_humidity;BME280_pressure;Samples;Min_cycle;Max_cycle;Signal;HPM_P1;HPM_P2
2022/05/18 00:00:21;;;;;;;9.77;9.48;;;16.30;99.90;;;;;;5062930;28;20222;-85
2022/05/18 00:02:50;;;;;;;9.90;9.60;;;16.30;99.90;;;;;;5063316;28;20298;-85
2022/05/18 00:05:20;;;;;;;9.55;9.25;;;16.30;99.90;;;;;;5067223;28;20269;-84
2022/05/18 00:07:49;;;;;;;9.75;9.45;;;16.30;99.90;;;;;;5078304;28;20222;-85
2022/05/18 00:10:18;;;;;;;9.52;9.23;;;16.30;99.90;;;;;;5077815;28;20249;-84
2022/05/18 00:12:48;;;;;;;9.40;9.10;;;16.30;99.90;;;;;;5077559;28;20250;-83
2022/05/18 00:15:25;;;;;;;9.48;9.18;;;16.30;99.90;;;;;;5077854;28;20277;-83
2022/05/18 00:17:54;;;;;;;10.05;9.75;;;16.40;99.90;;;;;;5075503;28;20227;-84
2022/05/18 00:20:23;;;;;;;9.50;9.20;;;16.40;99.90;;;;;;5074237;28;20231;-84
2022/05/18 00:22:55;;;;;;;9.70;9.40;;;16.50;99.90;;;;;;5078074;28;20242;-84
2022/05/18 00:25:26;;;;;;;9.65;9.35;;;16.50;99.90;;;;;;5077951;28;20334;-84
2022/05/18 00:27:54;;;;;;;9.02;8.82;;;16.50;99.90;;;;;;5074784;28;20269;-84
2022/05/18 00:30:30;;;;;;;9.25;8.95;;;16.60;99.90;;;;;;5064115;28;20227;-85
2022/05/18 00:33:04;;;;;;;9.38;9.07;;;16.60;99.90;;;;;;5076525;28;20241;-84
2022/05/18 00:35:35;;;;;;;9.48;9.18;;;16.60;99.90;;;;;;5077707;28;20219;-84
2022/05/18 00:38:07;;;;;;;9.32;9.05;;;16.60;99.90;;;;;;5077665;28;20219;-85
2022/05/18 00:40:36;;;;;;;9.40;9.10;;;16.60;99.90;;;;;;5077803;28;20234;-85
2022/05/18 00:43:06;;;;;;;9.57;9.27;;;16.60;99.90;;;;;;5077882;28;20230;-85
2022/05/18 00:45:40;;;;;;;9.70;9.40;;;16.60;99.90;;;;;;5073655;28;20253;-84
2022/05/18 00:48:08;;;;;;;9.82;9.52;;;16.60;99.90;;;;;;5077020;28;20214;-84
2022/05/18 00:50:37;;;;;;;9.70;9.40;;;16.60;99.90;;;;;;5077448;28;20239;-85
2022/05/18 00:53:10;;;;;;;9.75;9.45;;;16.60;99.90;;;;;;5077713;28;20239;-85
2022/05/18 00:55:44;;;;;;;10.00;9.70;;;16.50;99.90;;;;;;5077548;28;20225;-85
2022/05/18 00:58:23;;;;;;;9.82;9.52;;;16.50;99.90;;;;;;5078235;28;20222;-85
2022/05/18 01:00:54;;;;;;;9.98;9.68;;;16.50;99.90;;;;;;5079023;28;20290;-84
2022/05/18 01:03:30;;;;;;;9.50;9.20;;;16.50;99.90;;;;;;5079897;28;20246;-85
2022/05/18 01:06:07;;;;;;;9.50;9.20;;;16.40;99.90;;;;;;5079162;28;20338;-84
2022/05/18 01:08:47;;;;;;;9.50;9.20;;;16.40;99.90;;;;;;5077462;28;20241;-83
2022/05/18 01:11:17;;;;;;;9.60;9.30;;;16.30;99.90;;;;;;5077500;28;20258;-85
2022/05/18 01:13:46;;;;;;;9.90;9.60;;;16.20;99.90;;;;;;5077692;28;20245;-85
2022/05/18 01:16:20;;;;;;;10.20;9.90;;;16.10;99.90;;;;;;5077108;28;20234;-84
2022/05/18 01:18:54;;;;;;;10.10;9.80;;;15.90;99.90;;;;;;5078043;28;20223;-84
2022/05/18 01:21:24;;;;;;;9.77;9.48;;;15.80;99.90;;;;;;5077098;28;20286;-85
2022/05/18 01:24:02;;;;;;;9.60;9.30;;;15.80;99.90;;;;;;5076741;28;20249;-84
2022/05/18 01:26:48;;;;;;;9.82;9.52;;;15.70;99.90;;;;;;5076832;28;20252;-84
2022/05/18 01:29:21;;;;;;;9.77;9.48;;;15.70;99.90;;;;;;5076999;28;20218;-85
2022/05/18 01:31:56;;;;;;;9.73;9.43;;;15.70;99.90;;;;;;5076660;28;20230;-85
2022/05/18 01:34:41;;;;;;;9.90;9.60;;;15.70;99.90;;;;;;5076738;28;20238;-84
2022/05/18 01:37:15;;;;;;;9.65;9.35;;;15.70;99.90;;;;;;5067647;28;20227;-84
2022/05/18 01:39:52;;;;;;;9.90;9.60;;;15.70;99.90;;;;;;5077459;28;20215;-84
2022/05/18 01:42:30;;;;;;;10.25;9.95;;;15.70;99.90;;;;;;5077651;28;20242;-85
2022/05/18 01:44:59;;;;;;;10.20;9.90;;;15.70;99.90;;;;;;5076969;28;20261;-84
2022/05/18 01:47:38;;;;;;;10.30;10.00;;;15.70;99.90;;;;;;5075850;28;20258;-84
2022/05/18 01:50:16;;;;;;;10.13;9.82;;;15.70;99.90;;;;;;5073527;28;20223;-84
2022/05/18 01:52:45;;;;;;;10.10;9.80;;;15.70;99.90;;;;;;5076802;28;20241;-84
2022/05/18 01:55:18;;;;;;;10.10;9.80;;;15.60;99.90;;;;;;5078610;28;20287;-84
2022/05/18 01:57:47;;;;;;;10.00;9.70;;;15.60;99.90;;;;;;5079791;28;20246;-85
2022/05/18 02:00:19;;;;;;;9.80;9.50;;;15.70;99.90;;;;;;5077440;28;20226;-84
2022/05/18 02:02:52;;;;;;;9.90;9.60;;;15.70;99.90;;;;;;5076789;28;20233;-85
2022/05/18 02:05:21;;;;;;;9.63;9.32;;;15.70;99.90;;;;;;5076738;28;20238;-84
2022/05/18 02:07:50;;;;;;;9.90;9.60;;;15.70;99.90;;;;;;5076266;28;20219;-84
2022/05/18 02:10:19;;;;;;;9.77;9.48;;;15.70;99.90;;;;;;5076043;28;20227;-84
2022/05/18 02:12:52;;;;;;;9.50;9.20;;;15.80;99.90;;;;;;5074921;28;20230;-84
2022/05/18 02:15:22;;;;;;;9.80;9.50;;;15.80;99.90;;;;;;5075216;28;20253;-85
2022/05/18 02:17:51;;;;;;;9.70;9.40;;;15.90;99.90;;;;;;5068480;28;20254;-84
2022/05/18 02:20:20;;;;;;;9.85;9.55;;;15.90;99.90;;;;;;5068252;28;20358;-84
2022/05/18 02:22:51;;;;;;;9.80;9.50;;;15.90;99.90;;;;;;5067614;28;20293;-84
2022/05/18 02:25:26;;;;;;;9.55;9.25;;;15.90;99.90;;;;;;5067132;28;20281;-84
2022/05/18 02:27:57;;;;;;;9.80;9.50;;;16.00;99.90;;;;;;5066949;28;20230;-84
2022/05/18 02:30:24;;;;;;;9.80;9.50;;;16.00;99.90;;;;;;5066837;28;20234;-84
2022/05/18 02:32:53;;;;;;;9.55;9.25;;;16.00;99.90;;;;;;5066564;28;20234;-84
2022/05/18 02:35:22;;;;;;;9.68;9.38;;;16.00;99.90;;;;;;5067268;28;20258;-85
2022/05/18 02:37:52;;;;;;;9.50;9.20;;;16.00;99.90;;;;;;5065726;28;20296;-84
2022/05/18 02:40:22;;;;;;;9.23;8.93;;;15.90;99.90;;;;;;5066141;28;20214;-84
2022/05/18 02:42:52;;;;;;;9.63;9.32;;;15.90;99.90;;;;;;5072633;28;20270;-84
2022/05/18 02:45:23;;;;;;;9.30;9.00;;;16.00;99.90;;;;;;5071243;28;20241;-85
2022/05/18 02:47:51;;;;;;;9.55;9.25;;;15.90;99.90;;;;;;5074233;28;20265;-85
2022/05/18 02:50:19;;;;;;;9.80;9.50;;;15.90;99.90;;;;;;5071121;28;20222;-84
2022/05/18 02:52:48;;;;;;;9.70;9.40;;;15.90;99.90;;;;;;5074590;28;20235;-84
2022/05/18 02:58:06;;;;;;;9.80;9.50;;;15.80;99.90;;;;;;5070591;28;20223;-84
2022/05/18 03:00:37;;;;;;;9.38;9.07;;;15.70;99.90;;;;;;5065909;28;20227;-84
2022/05/18 03:03:05;;;;;;;9.60;9.30;;;15.70;99.90;;;;;;5065274;28;20235;-84
2022/05/18 03:05:36;;;;;;;9.43;9.13;;;15.70;99.90;;;;;;5065738;28;20234;-84
2022/05/18 03:08:05;;;;;;;9.63;9.32;;;15.70;99.90;;;;;;5064670;28;20250;-84
2022/05/18 03:10:33;;;;;;;9.43;9.13;;;15.70;99.90;;;;;;5065516;28;20222;-85
2022/05/18 03:13:03;;;;;;;10.00;9.70;;;15.70;99.90;;;;;;5064687;28;20293;-84
2022/05/18 03:15:33;;;;;;;9.80;9.50;;;15.70;99.90;;;;;;5065261;28;20234;-85
2022/05/18 03:18:05;;;;;;;10.20;9.90;;;15.70;99.90;;;;;;5065441;28;20219;-85
2022/05/18 03:26:09;;;;;;;10.13;9.82;;;15.60;99.90;;;;;;5062106;28;20272;-84
2022/05/18 03:28:45;;;;;;;10.07;9.77;;;15.60;99.90;;;;;;5065023;28;20242;-84
2022/05/18 03:31:13;;;;;;;10.20;9.90;;;15.60;99.90;;;;;;5067215;28;20239;-84
2022/05/18 03:33:43;;;;;;;9.90;9.60;;;15.60;99.90;;;;;;5104557;22;20233;-80
2022/05/18 03:36:12;;;;;;;9.85;9.55;;;15.60;99.90;;;;;;5105128;28;20257;-80
2022/05/18 03:38:41;;;;;;;10.10;9.80;;;15.60;99.90;;;;;;5105611;28;20236;-80
2022/05/18 03:41:11;;;;;;;9.52;9.23;;;15.60;99.90;;;;;;5104738;28;20259;-80
2022/05/18 03:43:41;;;;;;;9.65;9.35;;;15.70;99.90;;;;;;5104382;28;20241;-81
2022/05/18 03:46:10;;;;;;;9.60;9.30;;;15.70;99.90;;;;;;5104149;28;20234;-80
2022/05/18 03:48:43;;;;;;;9.68;9.38;;;15.70;99.90;;;;;;5103697;28;20264;-81
2022/05/18 03:51:13;;;;;;;9.68;9.38;;;15.80;99.90;;;;;;5103771;28;20237;-81
2022/05/18 03:53:40;;;;;;;9.70;9.40;;;15.80;99.90;;;;;;5103509;28;20279;-81
2022/05/18 03:56:09;;;;;;;9.88;9.57;;;15.90;99.90;;;;;;5103963;28;20279;-81
2022/05/18 03:58:38;;;;;;;9.88;9.57;;;15.90;99.90;;;;;;5103782;28;20248;-81
2022/05/18 04:01:09;;;;;;;9.98;9.68;;;16.00;99.90;;;;;;5103273;28;20264;-80
2022/05/18 04:03:40;;;;;;;10.05;9.75;;;16.00;99.90;;;;;;5103704;28;20343;-81
2022/05/18 04:08:53;;;;;;;10.10;9.80;;;16.10;99.90;;;;;;5103620;28;20295;-81
2022/05/18 04:11:22;;;;;;;9.90;9.60;;;16.10;99.90;;;;;;5102853;28;20238;-81
2022/05/18 04:13:52;;;;;;;9.70;9.40;;;16.20;99.90;;;;;;5103828;28;20234;-81
2022/05/18 04:16:21;;;;;;;9.63;9.32;;;16.20;99.90;;;;;;5105803;28;20261;-81
2022/05/18 04:18:51;;;;;;;10.00;9.70;;;16.30;99.90;;;;;;5107232;28;20249;-81
2022/05/18 04:21:30;;;;;;;9.77;9.48;;;16.30;99.90;;;;;;5105780;28;20225;-81
2022/05/18 04:23:58;;;;;;;9.73;9.43;;;16.30;99.90;;;;;;5104778;28;20233;-81
2022/05/18 04:26:28;;;;;;;9.77;9.48;;;16.30;99.90;;;;;;5104960;28;20225;-81
2022/05/18 04:28:57;;;;;;;10.25;9.95;;;16.20;99.90;;;;;;5104158;28;20344;-81
2022/05/18 04:31:27;;;;;;;9.80;9.50;;;16.20;99.90;;;;;;5104744;28;20279;-81
2022/05/18 04:33:56;;;;;;;9.73;9.43;;;16.10;99.90;;;;;;5106867;28;20237;-81
2022/05/18 04:39:13;;;;;;;9.90;9.60;;;16.10;99.90;;;;;;5105395;28;20252;-82
2022/05/18 04:41:43;;;;;;;9.70;9.40;;;16.00;99.90;;;;;;5105942;28;20218;-82
2022/05/18 04:44:11;;;;;;;9.90;9.60;;;16.10;99.90;;;;;;5104717;28;20233;-82
2022/05/18 04:46:41;;;;;;;9.77;9.48;;;16.00;99.90;;;;;;5103279;28;20252;-82
2022/05/18 04:49:10;;;;;;;9.95;9.65;;;16.00;99.90;;;;;;5103803;28;20228;-82
2022/05/18 04:54:27;;;;;;;10.00;9.70;;;16.00;99.90;;;;;;5103332;28;20229;-82
2022/05/18 04:56:59;;;;;;;9.70;9.40;;;16.00;99.90;;;;;;5083368;28;20234;-82
2022/05/18 04:59:29;;;;;;;9.68;9.38;;;16.00;99.90;;;;;;5082502;28;20224;-82
2022/05/18 05:01:56;;;;;;;9.90;9.60;;;16.00;99.90;;;;;;5083179;28;20222;-82
2022/05/18 05:04:24;;;;;;;9.60;9.30;;;16.10;99.90;;;;;;5082476;28;20508;-82
2022/05/18 05:09:41;;;;;;;9.70;9.40;;;16.40;99.90;;;;;;5084201;28;20256;-82
2022/05/18 05:12:12;;;;;;;10.00;9.70;;;16.50;99.90;;;;;;5091792;28;20207;-82
2022/05/18 05:14:42;;;;;;;9.95;9.65;;;16.60;99.90;;;;;;5091061;28;20238;-83
2022/05/18 05:17:11;;;;;;;10.23;9.93;;;16.70;99.90;;;;;;5097878;28;20223;-82
2022/05/18 05:19:40;;;;;;;10.20;9.90;;;16.80;99.90;;;;;;5086375;28;20238;-82
2022/05/18 05:24:57;;;;;;;9.95;9.65;;;17.10;99.90;;;;;;5083580;28;20226;-82
2022/05/18 05:27:26;;;;;;;10.18;9.88;;;17.20;99.90;;;;;;5083738;28;20230;-82
2022/05/18 05:29:56;;;;;;;10.15;9.85;;;17.30;99.90;;;;;;5082868;28;20261;-82
2022/05/18 05:32:25;;;;;;;9.70;9.40;;;17.40;99.90;;;;;;5084367;28;20226;-82
2022/05/18 05:34:55;;;;;;;9.88;9.57;;;17.50;99.90;;;;;;5082713;28;21063;-82
2022/05/18 05:37:33;;;;;;;10.10;9.80;;;17.60;99.90;;;;;;5086634;28;20227;-82
2022/05/18 05:40:02;;;;;;;10.18;9.88;;;17.70;99.90;;;;;;5083047;28;20237;-82
2022/05/18 05:42:32;;;;;;;9.73;9.43;;;17.70;99.90;;;;;;5083471;28;20225;-82
2022/05/18 05:45:04;;;;;;;10.40;10.10;;;17.80;99.90;;;;;;5082912;28;20230;-82
2022/05/18 05:47:32;;;;;;;10.00;9.70;;;18.00;99.90;;;;;;5083210;28;21029;-82
2022/05/18 05:50:01;;;;;;;10.07;9.77;;;18.10;99.90;;;;;;5082160;28;20299;-82
2022/05/18 05:52:32;;;;;;;10.18;9.88;;;18.30;99.90;;;;;;5081426;28;20261;-82
2022/05/18 05:55:00;;;;;;;10.38;10.07;;;18.40;99.90;;;;;;5081808;28;20238;-82
2022/05/18 05:57:29;;;;;;;10.63;10.32;;;18.60;99.90;;;;;;5082236;28;20232;-82
2022/05/18 06:00:00;;;;;;;10.40;10.10;;;18.60;99.90;;;;;;5082604;28;20249;-83
2022/05/18 06:02:28;;;;;;;10.57;10.27;;;18.70;99.90;;;;;;5081873;28;20378;-82
2022/05/18 06:04:57;;;;;;;10.18;9.88;;;18.90;99.90;;;;;;5082762;28;20766;-83
2022/05/18 06:07:27;;;;;;;10.35;10.05;;;18.90;99.90;;;;;;5082797;28;20719;-83
2022/05/18 06:10:04;;;;;;;10.50;10.20;;;19.00;99.90;;;;;;5082758;28;20257;-83
2022/05/18 06:12:34;;;;;;;10.07;9.77;;;19.10;99.90;;;;;;5093208;28;20225;-82
2022/05/18 06:15:04;;;;;;;10.98;10.68;;;19.10;99.90;;;;;;5103894;28;20234;-83
2022/05/18 06:17:34;;;;;;;10.10;9.80;;;19.10;99.90;;;;;;5104997;28;20304;-84
2022/05/18 06:20:02;;;;;;;10.40;10.10;;;19.10;99.90;;;;;;5104346;28;20225;-82
2022/05/18 06:22:32;;;;;;;10.40;10.10;;;19.00;99.90;;;;;;5103557;28;20221;-82
2022/05/18 06:25:13;;;;;;;10.50;10.20;;;18.80;99.90;;;;;;5102828;28;20404;-83
2022/05/18 06:27:42;;;;;;;10.60;10.30;;;18.70;99.90;;;;;;5103199;28;20233;-83
2022/05/18 06:30:12;;;;;;;10.60;10.30;;;18.60;99.90;;;;;;5102622;28;20253;-83
2022/05/18 06:32:40;;;;;;;10.55;10.25;;;18.50;99.90;;;;;;5103703;28;20229;-84
2022/05/18 06:35:12;;;;;;;10.40;10.10;;;18.50;99.90;;;;;;5103823;28;20225;-84
2022/05/18 06:37:39;;;;;;;10.30;10.00;;;18.60;99.90;;;;;;5104841;28;20235;-84
2022/05/18 06:40:16;;;;;;;10.50;10.20;;;18.70;99.90;;;;;;5103579;28;20237;-84
2022/05/18 06:42:45;;;;;;;10.30;10.00;;;18.70;99.90;;;;;;5104030;28;20298;-84
2022/05/18 06:45:15;;;;;;;10.35;10.05;;;18.70;99.90;;;;;;5103696;28;20251;-83
2022/05/18 06:47:44;;;;;;;10.20;9.90;;;18.80;99.90;;;;;;5103396;28;20228;-83
2022/05/18 06:50:14;;;;;;;10.40;10.10;;;18.80;99.90;;;;;;5095966;28;20237;-83
2022/05/18 06:52:42;;;;;;;10.60;10.30;;;18.80;99.90;;;;;;5103455;28;20217;-83
2022/05/18 06:57:59;;;;;;;10.43;10.13;;;18.90;99.90;;;;;;5116607;28;20221;-83
2022/05/18 07:00:28;;;;;;;10.43;10.13;;;18.90;99.90;;;;;;5108302;28;20233;-83
2022/05/18 07:02:58;;;;;;;10.50;10.20;;;18.80;99.90;;;;;;5106591;28;20230;-83
2022/05/18 07:05:27;;;;;;;10.20;9.90;;;18.70;99.90;;;;;;5106127;28;20241;-83
2022/05/18 07:07:56;;;;;;;10.20;9.90;;;18.70;99.90;;;;;;5106269;28;20247;-83
2022/05/18 07:10:44;;;;;;;10.23;9.93;;;18.70;99.90;;;;;;5104947;28;20245;-83
2022/05/18 07:13:17;;;;;;;10.63;10.32;;;18.60;99.90;;;;;;5106976;28;20251;-83
2022/05/18 07:15:46;;;;;;;10.15;9.85;;;18.60;99.90;;;;;;5105745;28;20229;-83
2022/05/18 07:18:15;;;;;;;10.30;10.00;;;18.60;99.90;;;;;;5103801;28;20229;-83
2022/05/18 07:20:43;;;;;;;10.40;10.10;;;18.80;99.90;;;;;;5098594;28;20238;-84
2022/05/18 07:23:13;;;;;;;10.10;9.80;;;19.00;99.90;;;;;;5094174;28;20213;-84
2022/05/18 07:25:51;;;;;;;10.10;9.80;;;19.20;99.90;;;;;;5104798;28;20383;-83
2022/05/18 07:28:20;;;;;;;10.20;9.90;;;19.30;99.90;;;;;;5103308;28;20275;-84
2022/05/18 07:30:50;;;;;;;9.82;9.52;;;19.40;99.90;;;;;;5102458;28;20241;-84
2022/05/18 07:33:20;;;;;;;9.70;9.40;;;19.40;99.90;;;;;;5104459;28;20241;-83
2022/05/18 07:35:49;;;;;;;9.98;9.68;;;19.50;99.90;;;;;;5105078;28;20221;-83
2022/05/18 07:38:19;;;;;;;10.07;9.77;;;19.60;99.90;;;;;;5102545;28;20238;-82
2022/05/18 07:43:35;;;;;;;9.50;9.20;;;19.60;99.90;;;;;;5099373;28;20239;-82
2022/05/18 07:46:04;;;;;;;10.00;9.70;;;19.60;99.90;;;;;;5101677;28;20229;-81
2022/05/18 07:48:33;;;;;;;10.40;10.10;;;19.70;99.90;;;;;;5099804;28;20257;-82
2022/05/18 07:51:03;;;;;;;10.23;9.93;;;19.80;99.90;;;;;;5105647;28;20234;-82
2022/05/18 07:53:32;;;;;;;10.40;10.10;;;19.80;99.90;;;;;;5107232;28;20222;-82
2022/05/18 07:56:11;;;;;;;10.90;10.60;;;19.80;99.90;;;;;;5105844;28;20233;-83
2022/05/18 07:58:52;;;;;;;10.90;10.60;;;20.00;99.90;;;;;;5104472;28;20229;-82
2022/05/18 08:01:42;;;;;;;10.73;10.43;;;20.10;99.90;;;;;;5105208;28;20222;-82
2022/05/18 08:04:18;;;;;;;10.60;10.30;;;20.30;99.90;;;;;;5110858;28;20217;-84
2022/05/18 08:06:54;;;;;;;10.70;10.40;;;20.50;99.90;;;;;;5114690;28;20229;-84
2022/05/18 08:15:05;;;;;;;10.60;10.30;;;20.70;99.90;;;;;;5109654;28;20242;-84
2022/05/18 08:18:05;;;;;;;11.02;10.73;;;21.10;99.90;;;;;;5107519;28;20232;-83
2022/05/18 08:20:41;;;;;;;11.32;11.02;;;21.30;99.90;;;;;;5108433;28;20229;-83
2022/05/18 08:23:10;;;;;;;10.82;10.52;;;21.50;99.90;;;;;;5087049;28;20230;-83
2022/05/18 08:25:39;;;;;;;11.00;10.70;;;21.60;99.90;;;;;;5086417;28;20226;-82
2022/05/18 08:28:17;;;;;;;11.00;10.70;;;21.70;99.90;;;;;;5086406;28;20226;-83
2022/05/18 08:30:55;;;;;;;10.57;10.27;;;21.80;99.90;;;;;;5086289;28;20222;-82
2022/05/18 08:33:31;;;;;;;10.90;10.60;;;21.90;99.90;;;;;;5086891;28;20252;-81
2022/05/18 08:38:50;;;;;;;10.95;10.65;;;22.10;99.90;;;;;;5095739;28;20214;-82
2022/05/18 08:41:29;;;;;;;11.13;10.82;;;22.30;99.90;;;;;;5100871;28;20230;-82
2022/05/18 08:44:08;;;;;;;11.07;10.77;;;22.60;99.90;;;;;;5097430;28;20236;-83
2022/05/18 08:46:45;;;;;;;11.02;10.73;;;22.80;99.90;;;;;;5092375;28;20224;-82
2022/05/18 08:49:31;;;;;;;10.90;10.60;;;22.90;99.90;;;;;;5093091;28;20233;-83
2022/05/18 08:55:48;;;;;;;10.90;10.60;;;23.20;99.90;;;;;;5106541;28;20225;-82
2022/05/18 08:58:28;;;;;;;11.30;10.90;;;23.30;99.90;;;;;;5108817;28;20214;-83
2022/05/18 09:01:04;;;;;;;11.27;10.93;;;23.30;99.90;;;;;;5107573;28;20278;-82
2022/05/18 09:03:37;;;;;;;11.35;10.95;;;23.50;99.90;;;;;;5107361;28;20239;-83
2022/05/18 09:06:13;;;;;;;10.93;10.63;;;23.50;99.90;;;;;;5107844;28;20233;-83
2022/05/18 09:10:12;;;;;;;10.60;10.30;;;23.50;99.90;;;;;;5106448;28;20223;-83
2022/05/18 09:11:42;;;;;;;10.40;10.10;;;23.60;99.90;;;;;;5108322;28;20242;-82
2022/05/18 09:14:11;;;;;;;10.48;10.18;;;23.90;99.90;;;;;;5107896;28;20230;-82
2022/05/18 09:16:56;;;;;;;10.45;10.15;;;23.80;99.90;;;;;;5107754;28;20237;-82
2022/05/18 09:19:43;;;;;;;10.90;10.60;;;23.70;99.90;;;;;;5107245;28;20298;-83
2022/05/18 09:22:23;;;;;;;10.52;10.23;;;23.80;99.90;;;;;;5108606;28;20265;-82
2022/05/18 09:25:11;;;;;;;10.93;10.63;;;23.90;99.90;;;;;;5109243;28;20229;-83
2022/05/18 09:28:06;;;;;;;10.98;10.68;;;24.00;99.90;;;;;;5108100;28;20229;-82
2022/05/18 09:30:44;;;;;;;10.90;10.60;;;24.10;99.90;;;;;;5106102;28;20257;-82
2022/05/18 09:33:39;;;;;;;10.98;10.68;;;24.30;99.90;;;;;;5107473;28;20244;-82
2022/05/18 09:36:40;;;;;;;10.82;10.52;;;24.50;99.90;;;;;;5128232;22;20242;-84
2022/05/18 09:39:13;;;;;;;10.80;10.50;;;24.80;99.90;;;;;;5102971;28;20225;-83
2022/05/18 09:41:46;;;;;;;10.95;10.65;;;25.00;99.90;;;;;;5102420;28;20229;-82
2022/05/18 09:44:24;;;;;;;11.40;11.00;;;25.00;99.90;;;;;;5102768;28;20283;-83
2022/05/18 09:46:53;;;;;;;11.32;10.93;;;25.20;99.90;;;;;;5101837;28;20236;-85
2022/05/18 09:49:29;;;;;;;10.88;10.57;;;25.20;99.90;;;;;;5100930;28;20225;-83
2022/05/18 09:52:02;;;;;;;10.80;10.50;;;25.30;99.90;;;;;;5101019;28;20217;-83
2022/05/18 09:54:32;;;;;;;10.90;10.60;;;25.60;99.90;;;;;;5101715;28;20229;-84
2022/05/18 09:57:08;;;;;;;10.68;10.38;;;25.70;99.90;;;;;;5101562;28;20245;-83
2022/05/18 09:59:44;;;;;;;10.90;10.60;;;25.80;99.90;;;;;;5102492;28;20233;-84
2022/05/18 10:07:55;;;;;;;10.60;10.30;;;26.20;99.90;;;;;;5102121;28;20238;-84
2022/05/18 10:10:34;;;;;;;11.05;10.75;;;26.10;99.90;;;;;;5101266;28;20267;-84
2022/05/18 10:13:13;;;;;;;11.43;11.02;;;26.40;99.90;;;;;;5103292;28;20234;-83
2022/05/18 10:15:50;;;;;;;11.50;11.10;;;26.80;99.90;;;;;;5101227;28;20237;-84
2022/05/18 10:18:36;;;;;;;11.35;10.95;;;27.00;99.90;;;;;;5101132;28;20248;-84
2022/05/18 10:21:26;;;;;;;11.00;10.70;;;26.80;99.90;;;;;;5101539;28;20229;-83
2022/05/18 10:24:03;;;;;;;11.00;10.70;;;26.80;99.90;;;;;;5101819;28;20260;-84
2022/05/18 10:26:35;;;;;;;10.60;10.30;;;26.70;99.90;;;;;;5100983;28;20236;-85
2022/05/18 10:29:10;;;;;;;10.90;10.60;;;26.80;99.90;;;;;;5102021;28;20221;-84
2022/05/18 10:31:42;;;;;;;10.82;10.52;;;27.00;99.90;;;;;;5101681;28;20233;-84
2022/05/18 10:34:18;;;;;;;10.85;10.55;;;27.50;99.90;;;;;;5101011;28;20239;-83
2022/05/18 10:36:57;;;;;;;10.90;10.60;;;27.70;99.90;;;;;;5099987;28;20286;-84
2022/05/18 10:39:39;;;;;;;11.05;10.68;;;27.60;99.90;;;;;;5101572;28;20229;-83
2022/05/18 10:42:23;;;;;;;11.30;10.90;;;27.50;99.90;;;;;;5101052;28;20233;-84
2022/05/18 10:44:52;;;;;;;11.43;11.02;;;27.60;99.90;;;;;;5100724;28;20235;-83
2022/05/18 10:47:30;;;;;;;11.38;10.98;;;27.90;99.90;;;;;;5101730;28;20233;-84
2022/05/18 10:50:34;;;;;;;11.48;11.07;;;28.10;99.90;;;;;;5103362;28;20236;-84
2022/05/18 10:53:32;;;;;;;11.70;11.30;;;28.20;99.90;;;;;;5103305;28;20240;-83
2022/05/18 10:56:09;;;;;;;11.82;11.43;;;28.00;99.90;;;;;;5103561;28;20241;-83
2022/05/18 10:58:47;;;;;;;11.85;11.45;;;28.10;99.90;;;;;;5103107;28;20280;-83
2022/05/18 11:01:24;;;;;;;11.80;11.40;;;28.20;99.90;;;;;;5102027;28;20233;-83
2022/05/18 11:04:02;;;;;;;11.82;11.43;;;28.60;99.90;;;;;;5101415;28;20243;-84
2022/05/18 11:06:35;;;;;;;11.93;11.52;;;29.00;99.90;;;;;;5101425;28;20233;-84
2022/05/18 11:09:10;;;;;;;12.18;11.77;;;29.00;99.90;;;;;;5101506;28;20239;-83
2022/05/18 11:11:51;;;;;;;11.98;11.57;;;28.90;99.90;;;;;;5100510;28;20233;-83
2022/05/18 11:14:30;;;;;;;11.68;11.27;;;28.60;99.90;;;;;;5100457;28;20232;-84
2022/05/18 11:17:06;;;;;;;11.82;11.43;;;28.20;99.90;;;;;;5100576;28;20295;-83
2022/05/18 11:19:45;;;;;;;11.32;10.98;;;28.40;99.90;;;;;;5101086;28;20256;-84
2022/05/18 11:22:29;;;;;;;11.55;11.15;;;28.50;99.90;;;;;;5101464;28;20308;-83
2022/05/18 11:25:17;;;;;;;11.55;11.15;;;28.20;99.90;;;;;;5100436;28;20218;-84
2022/05/18 11:27:55;;;;;;;11.07;10.77;;;28.30;99.90;;;;;;5100494;28;20233;-84
2022/05/18 11:30:36;;;;;;;11.10;10.80;;;28.20;99.90;;;;;;5102666;28;20230;-84
2022/05/18 11:33:16;;;;;;;10.95;10.65;;;28.00;99.90;;;;;;5103851;28;20237;-84
2022/05/18 11:35:52;;;;;;;10.65;10.35;;;27.90;99.90;;;;;;5106914;28;20217;-83
2022/05/18 11:38:39;;;;;;;10.63;10.32;;;27.90;99.90;;;;;;5104810;28;20239;-84
2022/05/18 11:41:28;;;;;;;10.85;10.55;;;27.80;99.90;;;;;;5102410;28;20233;-84
2022/05/18 11:44:04;;;;;;;11.20;10.90;;;28.10;99.90;;;;;;5100832;28;20293;-83
2022/05/18 11:46:52;;;;;;;11.60;11.20;;;28.40;99.90;;;;;;5100206;28;20274;-85
2022/05/18 11:49:23;;;;;;;11.40;11.10;;;28.80;99.90;;;;;;5100021;28;20283;-84
2022/05/18 11:52:25;;;;;;;11.63;11.23;;;29.40;99.90;;;;;;5103593;28;20237;-84
2022/05/18 11:55:15;;;;;;;11.70;11.30;;;30.10;99.90;;;;;;5104045;28;20229;-83
2022/05/18 11:58:00;;;;;;;11.80;11.40;;;30.70;99.90;;;;;;5104007;28;20230;-84
2022/05/18 12:00:51;;;;;;;11.95;11.55;;;31.30;99.90;;;;;;5103480;28;20279;-84
2022/05/18 12:03:42;;;;;;;11.65;11.25;;;31.60;99.90;;;;;;5104598;28;20237;-84
2022/05/18 12:10:18;;;;;;;11.57;11.20;;;31.10;99.90;;;;;;5087824;28;20232;-83
2022/05/18 12:12:59;;;;;;;11.20;10.90;;;30.90;99.90;;;;;;5102954;28;20224;-83
2022/05/18 12:15:42;;;;;;;11.55;11.18;;;31.20;99.90;;;;;;5102782;28;20252;-83
2022/05/18 12:18:21;;;;;;;11.70;11.30;;;31.00;99.90;;;;;;5103632;28;20222;-83
2022/05/18 12:20:59;;;;;;;11.07;10.77;;;30.20;99.90;;;;;;5103492;28;20237;-83
2022/05/18 12:23:37;;;;;;;11.02;10.73;;;29.60;99.90;;;;;;5102554;28;20241;-83
2022/05/18 12:26:07;;;;;;;10.77;10.48;;;29.20;99.90;;;;;;5102904;28;20241;-83
2022/05/18 12:28:39;;;;;;;10.88;10.57;;;29.20;99.90;;;;;;5102865;28;20234;-84
2022/05/18 12:31:07;;;;;;;10.80;10.50;;;29.30;99.90;;;;;;5103233;28;20213;-84
2022/05/18 12:33:45;;;;;;;10.80;10.50;;;29.90;99.90;;;;;;5102816;28;20218;-84
2022/05/18 12:36:19;;;;;;;11.48;11.10;;;30.50;99.90;;;;;;5101714;28;20233;-84
2022/05/18 12:39:01;;;;;;;11.32;11.02;;;30.50;99.90;;;;;;5102939;28;20237;-84
2022/05/18 12:41:32;;;;;;;11.05;10.75;;;30.70;99.90;;;;;;5103447;28;20552;-84
2022/05/18 12:44:09;;;;;;;11.40;11.10;;;30.60;99.90;;;;;;5102820;28;20712;-85
2022/05/18 12:46:40;;;;;;;11.45;11.15;;;30.10;99.90;;;;;;5102952;28;20241;-84
2022/05/18 12:49:17;;;;;;;11.05;10.75;;;29.80;99.90;;;;;;5103906;28;20229;-83
2022/05/18 12:51:56;;;;;;;11.18;10.88;;;29.40;99.90;;;;;;5103858;28;20233;-84
2022/05/18 12:54:33;;;;;;;11.18;10.88;;;28.90;99.90;;;;;;5102235;28;20256;-84
2022/05/18 13:00:52;;;;;;;11.40;11.05;;;28.30;99.90;;;;;;5103183;28;20225;-83
2022/05/18 13:04:05;;;;;;;11.45;11.15;;;28.60;99.90;;;;;;5102665;28;20237;-84
2022/05/18 13:06:52;;;;;;;11.45;11.15;;;29.50;99.90;;;;;;5102088;28;20234;-82
2022/05/18 13:09:40;;;;;;;11.35;11.05;;;30.30;99.90;;;;;;5101833;28;20332;-84
2022/05/18 13:12:36;;;;;;;11.30;11.00;;;30.50;99.90;;;;;;5102592;28;20229;-86
2022/05/18 13:18:09;;;;;;;11.18;10.88;;;29.40;99.90;;;;;;5101525;28;20217;-87
2022/05/18 13:20:59;;;;;;;10.80;10.50;;;29.00;99.90;;;;;;5102807;28;20257;-86
2022/05/18 13:23:43;;;;;;;10.95;10.65;;;28.60;99.90;;;;;;5102263;28;20243;-86
2022/05/18 13:26:33;;;;;;;10.95;10.65;;;28.40;99.90;;;;;;5101890;28;20236;-86
2022/05/18 13:29:18;;;;;;;10.60;10.30;;;28.40;99.90;;;;;;5103571;28;20213;-86
2022/05/18 13:31:56;;;;;;;10.70;10.40;;;28.30;99.90;;;;;;5104212;28;20229;-85
2022/05/18 13:34:44;;;;;;;10.50;10.20;;;28.30;99.90;;;;;;5102587;28;20225;-85
2022/05/18 13:37:14;;;;;;;10.60;10.30;;;28.20;99.90;;;;;;5101313;28;20241;-85
2022/05/18 13:39:51;;;;;;;10.70;10.40;;;28.20;99.90;;;;;;5101991;28;20226;-85
2022/05/18 13:42:38;;;;;;;11.38;10.98;;;28.00;99.90;;;;;;5120340;27;20241;-84
2022/05/18 13:45:16;;;;;;;11.20;10.80;;;28.30;99.90;;;;;;5102215;28;20244;-85
2022/05/18 13:47:47;;;;;;;11.20;10.80;;;29.10;99.90;;;;;;5102664;28;20244;-85
2022/05/18 13:53:13;;;;;;;10.70;10.40;;;30.10;99.90;;;;;;5103724;28;20221;-86
2022/05/18 13:55:49;;;;;;;11.05;10.75;;;29.70;99.90;;;;;;5102269;28;20271;-86
2022/05/18 13:58:21;;;;;;;11.00;10.70;;;29.30;99.90;;;;;;5101866;28;20325;-86
2022/05/18 14:00:57;;;;;;;11.00;10.70;;;28.90;99.90;;;;;;5097055;28;20225;-84
2022/05/18 14:03:38;;;;;;;10.90;10.60;;;28.70;99.90;;;;;;5092610;28;20295;-86
2022/05/18 14:06:15;;;;;;;11.52;11.13;;;28.80;99.90;;;;;;5095477;28;20234;-84
2022/05/18 14:08:52;;;;;;;11.30;11.00;;;29.00;99.90;;;;;;5089666;28;20237;-85
2022/05/18 14:11:21;;;;;;;11.23;10.93;;;29.20;99.90;;;;;;5099297;28;20221;-85